Terminal Aerodrome Forecast
Issued by NWS

Home | Current Version | Previous Version | Graphics & Text | Print | Product List | Glossary On
Versions: 1 2 3 4 5 6 7 8 9 10 11 12 13 14 15 16
740
FTUS41 KCLE 222331
TAFFDY
TAF
KFDY 222331Z 2300/2324 06006KT P6SM SKC
     FM230300 10004KT P6SM SCT250
     FM231500 12010KT P6SM BKN250
     FM232200 14010KT P6SM BKN100=

USA.gov is the U.S. government's official web portal to all federal, state and local government web resources and services.